Terminal Aerodrome Forecast
Issued by NWS Twin Cities, MN

Home | Current Version | Previous Version | Text Only | Print | Product List | Glossary Off
Versions: 1 2 3 4 5 6 7 8 9 10 11 12 13 14 15 16 17 18 19 20 21 22 23 24 25

000
FTUS43 KMPX 222300
TAFMSP
TAF
KMSP 222332Z 2300/2406 33006KT P6SM BKN020
     FM230300 04005KT P6SM BKN015
     FM230900 06005KT 4SM BR BKN007
     FM231600 08006KT P6SM BKN020
     FM231800 09010KT P6SM SCT030 BKN100
     FM240000 12011KT P6SM SCT015 BKN030=

USA.gov is the U.S. government's official web portal to all federal, state and local government web resources and services.